sensor_id;sensor_type;location;lat;lon;timestamp;temperature;humidity
23540;DHT22;11947;50.810;4.394;2023-11-19T00:00:08;13.80;99.90
23540;DHT22;11947;50.810;4.394;2023-11-19T00:02:38;13.80;99.90
23540;DHT22;11947;50.810;4.394;2023-11-19T00:05:04;13.90;99.90
23540;DHT22;11947;50.810;4.394;2023-11-19T00:07:30;13.70;99.90
23540;DHT22;11947;50.810;4.394;2023-11-19T00:09:55;13.80;99.90
23540;DHT22;11947;50.810;4.394;2023-11-19T00:12:21;13.90;99.90
23540;DHT22;11947;50.810;4.394;2023-11-19T00:14:47;13.90;99.90
23540;DHT22;11947;50.810;4.394;2023-11-19T00:17:13;13.80;99.90
23540;DHT22;11947;50.810;4.394;2023-11-19T00:19:39;13.80;99.90
23540;DHT22;11947;50.810;4.394;2023-11-19T00:22:04;13.90;99.90
23540;DHT22;11947;50.810;4.394;2023-11-19T00:24:30;13.90;99.90
23540;DHT22;11947;50.810;4.394;2023-11-19T00:26:56;13.90;99.90
23540;DHT22;11947;50.810;4.394;2023-11-19T00:29:22;13.80;99.90
23540;DHT22;11947;50.810;4.394;2023-11-19T00:31:47;13.90;99.90
23540;DHT22;11947;50.810;4.394;2023-11-19T00:34:13;13.80;99.90
23540;DHT22;11947;50.810;4.394;2023-11-19T00:36:39;13.80;99.90
23540;DHT22;11947;50.810;4.394;2023-11-19T00:39:04;13.90;99.90
23540;DHT22;11947;50.810;4.394;2023-11-19T00:41:31;13.90;99.90
23540;DHT22;11947;50.810;4.394;2023-11-19T00:43:56;13.90;99.90
23540;DHT22;11947;50.810;4.394;2023-11-19T00:46:22;13.80;99.90
23540;DHT22;11947;50.810;4.394;2023-11-19T00:48:47;13.80;99.90
23540;DHT22;11947;50.810;4.394;2023-11-19T00:51:13;13.70;99.90
23540;DHT22;11947;50.810;4.394;2023-11-19T00:53:40;13.80;99.90
23540;DHT22;11947;50.810;4.394;2023-11-19T00:56:06;13.70;99.90
23540;DHT22;11947;50.810;4.394;2023-11-19T00:58:32;13.70;99.90
23540;DHT22;11947;50.810;4.394;2023-11-19T01:00:58;13.70;99.90
23540;DHT22;11947;50.810;4.394;2023-11-19T01:03:23;13.80;99.90
23540;DHT22;11947;50.810;4.394;2023-11-19T01:05:49;13.80;99.90
23540;DHT22;11947;50.810;4.394;2023-11-19T01:08:15;13.80;99.90
23540;DHT22;11947;50.810;4.394;2023-11-19T01:10:41;13.80;99.90
23540;DHT22;11947;50.810;4.394;2023-11-19T01:13:07;13.80;99.90
23540;DHT22;11947;50.810;4.394;2023-11-19T01:15:32;13.80;99.90
23540;DHT22;11947;50.810;4.394;2023-11-19T01:17:58;13.70;99.90
23540;DHT22;11947;50.810;4.394;2023-11-19T01:20:24;13.70;99.90
23540;DHT22;11947;50.810;4.394;2023-11-19T01:22:50;13.70;99.90
23540;DHT22;11947;50.810;4.394;2023-11-19T01:25:16;13.60;99.90
23540;DHT22;11947;50.810;4.394;2023-11-19T01:27:42;13.70;99.90
23540;DHT22;11947;50.810;4.394;2023-11-19T01:30:08;13.60;99.90
23540;DHT22;11947;50.810;4.394;2023-11-19T01:32:38;13.70;99.90
23540;DHT22;11947;50.810;4.394;2023-11-19T01:35:04;13.70;99.90
23540;DHT22;11947;50.810;4.394;2023-11-19T01:37:30;13.70;99.90
23540;DHT22;11947;50.810;4.394;2023-11-19T01:39:57;13.80;99.90
23540;DHT22;11947;50.810;4.394;2023-11-19T01:42:23;13.80;99.90
23540;DHT22;11947;50.810;4.394;2023-11-19T01:45:00;13.70;99.90
23540;DHT22;11947;50.810;4.394;2023-11-19T01:47:27;13.70;99.90
23540;DHT22;11947;50.810;4.394;2023-11-19T01:49:53;13.60;99.90
23540;DHT22;11947;50.810;4.394;2023-11-19T01:52:20;13.60;99.90
23540;DHT22;11947;50.810;4.394;2023-11-19T01:54:46;13.60;99.90
23540;DHT22;11947;50.810;4.394;2023-11-19T01:57:12;13.50;99.90
23540;DHT22;11947;50.810;4.394;2023-11-19T01:59:38;13.50;99.90
23540;DHT22;11947;50.810;4.394;2023-11-19T02:02:05;13.50;99.90
23540;DHT22;11947;50.810;4.394;2023-11-19T02:04:31;13.40;99.90
23540;DHT22;11947;50.810;4.394;2023-11-19T02:06:58;13.40;99.90
23540;DHT22;11947;50.810;4.394;2023-11-19T02:09:24;13.40;99.90
23540;DHT22;11947;50.810;4.394;2023-11-19T02:11:50;13.50;99.90
23540;DHT22;11947;50.810;4.394;2023-11-19T02:14:17;13.30;99.90
23540;DHT22;11947;50.810;4.394;2023-11-19T02:16:43;13.30;99.90
23540;DHT22;11947;50.810;4.394;2023-11-19T02:19:09;13.30;99.90
23540;DHT22;11947;50.810;4.394;2023-11-19T02:21:36;13.30;99.90
23540;DHT22;11947;50.810;4.394;2023-11-19T02:24:06;13.20;99.90
23540;DHT22;11947;50.810;4.394;2023-11-19T02:26:40;13.30;99.90
23540;DHT22;11947;50.810;4.394;2023-11-19T02:29:08;13.40;99.90
23540;DHT22;11947;50.810;4.394;2023-11-19T02:31:33;13.30;99.90
23540;DHT22;11947;50.810;4.394;2023-11-19T02:34:00;13.30;99.90
23540;DHT22;11947;50.810;4.394;2023-11-19T02:36:27;13.30;99.90
23540;DHT22;11947;50.810;4.394;2023-11-19T02:38:53;13.40;99.90
23540;DHT22;11947;50.810;4.394;2023-11-19T02:41:19;13.10;99.90
23540;DHT22;11947;50.810;4.394;2023-11-19T02:43:44;13.00;99.90
23540;DHT22;11947;50.810;4.394;2023-11-19T02:46:10;13.00;99.90
23540;DHT22;11947;50.810;4.394;2023-11-19T02:48:36;13.10;99.90
23540;DHT22;11947;50.810;4.394;2023-11-19T02:51:02;13.20;99.90
23540;DHT22;11947;50.810;4.394;2023-11-19T02:53:32;13.20;99.90
23540;DHT22;11947;50.810;4.394;2023-11-19T02:55:57;13.20;99.90
23540;DHT22;11947;50.810;4.394;2023-11-19T02:58:31;13.00;99.90
23540;DHT22;11947;50.810;4.394;2023-11-19T03:00:57;13.00;99.90
23540;DHT22;11947;50.810;4.394;2023-11-19T03:03:27;13.00;99.90
23540;DHT22;11947;50.810;4.394;2023-11-19T03:06:07;12.90;99.90
23540;DHT22;11947;50.810;4.394;2023-11-19T03:08:35;12.90;99.90
23540;DHT22;11947;50.810;4.394;2023-11-19T03:11:01;13.00;99.90
23540;DHT22;11947;50.810;4.394;2023-11-19T03:13:26;13.00;99.90
23540;DHT22;11947;50.810;4.394;2023-11-19T03:15:52;13.10;99.90
23540;DHT22;11947;50.810;4.394;2023-11-19T03:18:19;13.10;99.90
23540;DHT22;11947;50.810;4.394;2023-11-19T03:20:46;13.00;99.90
23540;DHT22;11947;50.810;4.394;2023-11-19T03:23:12;13.00;99.90
23540;DHT22;11947;50.810;4.394;2023-11-19T03:25:38;13.00;99.90
23540;DHT22;11947;50.810;4.394;2023-11-19T03:28:03;12.90;99.90
23540;DHT22;11947;50.810;4.394;2023-11-19T03:30:30;12.80;99.90
23540;DHT22;11947;50.810;4.394;2023-11-19T03:32:56;13.00;99.90
23540;DHT22;11947;50.810;4.394;2023-11-19T03:35:23;12.70;99.90
23540;DHT22;11947;50.810;4.394;2023-11-19T03:37:50;12.70;99.90
23540;DHT22;11947;50.810;4.394;2023-11-19T03:40:16;12.70;99.90
23540;DHT22;11947;50.810;4.394;2023-11-19T03:42:41;12.40;99.90
23540;DHT22;11947;50.810;4.394;2023-11-19T03:45:07;12.50;99.90
23540;DHT22;11947;50.810;4.394;2023-11-19T03:47:36;12.40;99.90
23540;DHT22;11947;50.810;4.394;2023-11-19T03:50:02;12.60;99.90
23540;DHT22;11947;50.810;4.394;2023-11-19T03:52:29;12.50;99.90
23540;DHT22;11947;50.810;4.394;2023-11-19T03:54:55;12.60;99.90
23540;DHT22;11947;50.810;4.394;2023-11-19T03:57:22;12.40;99.90
23540;DHT22;11947;50.810;4.394;2023-11-19T03:59:47;12.40;99.90
23540;DHT22;11947;50.810;4.394;2023-11-19T04:02:13;12.30;99.90
23540;DHT22;11947;50.810;4.394;2023-11-19T04:04:39;12.30;99.90
23540;DHT22;11947;50.810;4.394;2023-11-19T04:07:05;12.40;99.90
23540;DHT22;11947;50.810;4.394;2023-11-19T04:09:31;12.30;99.90
23540;DHT22;11947;50.810;4.394;2023-11-19T04:11:58;12.20;99.90
23540;DHT22;11947;50.810;4.394;2023-11-19T04:14:24;12.40;99.90
23540;DHT22;11947;50.810;4.394;2023-11-19T04:16:50;12.40;99.90
23540;DHT22;11947;50.810;4.394;2023-11-19T04:19:17;12.40;99.90
23540;DHT22;11947;50.810;4.394;2023-11-19T04:21:42;12.40;99.90
23540;DHT22;11947;50.810;4.394;2023-11-19T04:24:11;12.30;99.90
23540;DHT22;11947;50.810;4.394;2023-11-19T04:26:41;12.40;99.90
23540;DHT22;11947;50.810;4.394;2023-11-19T04:29:09;12.40;99.90
23540;DHT22;11947;50.810;4.394;2023-11-19T04:31:36;12.30;99.90
23540;DHT22;11947;50.810;4.394;2023-11-19T04:34:02;12.30;99.90
23540;DHT22;11947;50.810;4.394;2023-11-19T04:36:27;12.40;99.90
23540;DHT22;11947;50.810;4.394;2023-11-19T04:38:55;12.30;99.90
23540;DHT22;11947;50.810;4.394;2023-11-19T04:41:21;12.40;99.90
23540;DHT22;11947;50.810;4.394;2023-11-19T04:43:46;12.20;99.90
23540;DHT22;11947;50.810;4.394;2023-11-19T04:46:12;12.30;99.90
23540;DHT22;11947;50.810;4.394;2023-11-19T04:48:38;12.30;99.90
23540;DHT22;11947;50.810;4.394;2023-11-19T04:51:06;12.30;99.90
23540;DHT22;11947;50.810;4.394;2023-11-19T04:53:32;12.20;99.90
23540;DHT22;11947;50.810;4.394;2023-11-19T04:55:58;12.20;99.90
23540;DHT22;11947;50.810;4.394;2023-11-19T04:58:24;12.40;99.90
23540;DHT22;11947;50.810;4.394;2023-11-19T05:00:50;12.40;99.90
23540;DHT22;11947;50.810;4.394;2023-11-19T05:03:15;12.30;99.90
23540;DHT22;11947;50.810;4.394;2023-11-19T05:05:41;12.30;99.90
23540;DHT22;11947;50.810;4.394;2023-11-19T05:08:07;12.30;99.90
23540;DHT22;11947;50.810;4.394;2023-11-19T05:10:32;12.40;99.90
23540;DHT22;11947;50.810;4.394;2023-11-19T05:12:58;12.30;99.90
23540;DHT22;11947;50.810;4.394;2023-11-19T05:15:23;12.20;99.90
23540;DHT22;11947;50.810;4.394;2023-11-19T05:17:49;12.10;99.90
23540;DHT22;11947;50.810;4.394;2023-11-19T05:20:15;12.10;99.90
23540;DHT22;11947;50.810;4.394;2023-11-19T05:22:41;12.10;99.90
23540;DHT22;11947;50.810;4.394;2023-11-19T05:25:07;12.10;99.90
23540;DHT22;11947;50.810;4.394;2023-11-19T05:27:37;12.00;99.90
23540;DHT22;11947;50.810;4.394;2023-11-19T05:30:05;12.00;99.90
23540;DHT22;11947;50.810;4.394;2023-11-19T05:32:34;12.00;99.90
23540;DHT22;11947;50.810;4.394;2023-11-19T05:34:59;11.90;99.90
23540;DHT22;11947;50.810;4.394;2023-11-19T05:37:25;11.90;99.90
23540;DHT22;11947;50.810;4.394;2023-11-19T05:39:51;12.10;99.90
23540;DHT22;11947;50.810;4.394;2023-11-19T05:42:16;12.00;99.90
23540;DHT22;11947;50.810;4.394;2023-11-19T05:44:42;12.00;99.90
23540;DHT22;11947;50.810;4.394;2023-11-19T05:47:08;12.10;99.90
23540;DHT22;11947;50.810;4.394;2023-11-19T05:49:34;12.10;99.90
23540;DHT22;11947;50.810;4.394;2023-11-19T05:51:59;12.30;99.90
23540;DHT22;11947;50.810;4.394;2023-11-19T05:54:27;12.10;99.90
23540;DHT22;11947;50.810;4.394;2023-11-19T05:56:52;12.10;99.90
23540;DHT22;11947;50.810;4.394;2023-11-19T05:59:20;12.00;99.90
23540;DHT22;11947;50.810;4.394;2023-11-19T06:01:48;12.00;99.90
23540;DHT22;11947;50.810;4.394;2023-11-19T06:04:14;12.10;99.90
23540;DHT22;11947;50.810;4.394;2023-11-19T06:06:39;12.00;99.90
23540;DHT22;11947;50.810;4.394;2023-11-19T06:09:05;12.00;99.90
23540;DHT22;11947;50.810;4.394;2023-11-19T06:11:35;11.90;99.90
23540;DHT22;11947;50.810;4.394;2023-11-19T06:14:01;11.90;99.90
23540;DHT22;11947;50.810;4.394;2023-11-19T06:16:27;11.90;99.90
23540;DHT22;11947;50.810;4.394;2023-11-19T06:18:53;11.80;99.90
23540;DHT22;11947;50.810;4.394;2023-11-19T06:21:19;11.60;99.90
23540;DHT22;11947;50.810;4.394;2023-11-19T06:23:44;11.70;99.90
23540;DHT22;11947;50.810;4.394;2023-11-19T06:26:10;11.90;99.90
23540;DHT22;11947;50.810;4.394;2023-11-19T06:28:35;11.80;99.90
23540;DHT22;11947;50.810;4.394;2023-11-19T06:31:01;11.80;99.90
23540;DHT22;11947;50.810;4.394;2023-11-19T06:33:28;11.70;99.90
23540;DHT22;11947;50.810;4.394;2023-11-19T06:35:54;11.80;99.90
23540;DHT22;11947;50.810;4.394;2023-11-19T06:38:20;11.80;99.90
23540;DHT22;11947;50.810;4.394;2023-11-19T06:40:45;11.80;99.90
23540;DHT22;11947;50.810;4.394;2023-11-19T06:43:11;11.70;99.90
23540;DHT22;11947;50.810;4.394;2023-11-19T06:45:37;11.60;99.90
23540;DHT22;11947;50.810;4.394;2023-11-19T06:48:03;11.60;99.90
23540;DHT22;11947;50.810;4.394;2023-11-19T06:50:33;11.60;99.90
23540;DHT22;11947;50.810;4.394;2023-11-19T06:52:59;11.50;99.90
23540;DHT22;11947;50.810;4.394;2023-11-19T06:55:25;11.60;99.90
23540;DHT22;11947;50.810;4.394;2023-11-19T06:57:51;11.50;99.90
23540;DHT22;11947;50.810;4.394;2023-11-19T07:00:17;11.70;99.90
23540;DHT22;11947;50.810;4.394;2023-11-19T07:02:43;11.60;99.90
23540;DHT22;11947;50.810;4.394;2023-11-19T07:05:10;11.60;99.90
23540;DHT22;11947;50.810;4.394;2023-11-19T07:07:37;11.50;99.90
23540;DHT22;11947;50.810;4.394;2023-11-19T07:10:03;11.60;99.90
23540;DHT22;11947;50.810;4.394;2023-11-19T07:12:30;11.60;99.90
23540;DHT22;11947;50.810;4.394;2023-11-19T07:14:56;11.70;99.90
23540;DHT22;11947;50.810;4.394;2023-11-19T07:17:21;11.60;99.90
23540;DHT22;11947;50.810;4.394;2023-11-19T07:19:49;11.80;99.90
23540;DHT22;11947;50.810;4.394;2023-11-19T07:22:15;11.90;99.90
23540;DHT22;11947;50.810;4.394;2023-11-19T07:24:41;11.70;99.90
23540;DHT22;11947;50.810;4.394;2023-11-19T07:27:07;11.80;99.90
23540;DHT22;11947;50.810;4.394;2023-11-19T07:29:36;11.70;99.90
23540;DHT22;11947;50.810;4.394;2023-11-19T07:32:02;11.70;99.90
23540;DHT22;11947;50.810;4.394;2023-11-19T07:34:28;11.70;99.90
23540;DHT22;11947;50.810;4.394;2023-11-19T07:36:54;11.70;99.90
23540;DHT22;11947;50.810;4.394;2023-11-19T07:39:24;11.80;99.90
23540;DHT22;11947;50.810;4.394;2023-11-19T07:41:50;11.70;99.90
23540;DHT22;11947;50.810;4.394;2023-11-19T07:44:15;11.70;99.90
23540;DHT22;11947;50.810;4.394;2023-11-19T07:46:41;11.70;99.90
23540;DHT22;11947;50.810;4.394;2023-11-19T07:49:10;11.70;99.90
23540;DHT22;11947;50.810;4.394;2023-11-19T07:51:36;11.90;99.90
23540;DHT22;11947;50.810;4.394;2023-11-19T07:54:02;11.70;99.90
23540;DHT22;11947;50.810;4.394;2023-11-19T07:56:30;11.80;99.90
23540;DHT22;11947;50.810;4.394;2023-11-19T07:58:56;11.70;99.90
23540;DHT22;11947;50.810;4.394;2023-11-19T08:01:21;11.80;99.90
23540;DHT22;11947;50.810;4.394;2023-11-19T08:03:49;11.90;99.90
23540;DHT22;11947;50.810;4.394;2023-11-19T08:06:14;12.10;99.90
23540;DHT22;11947;50.810;4.394;2023-11-19T08:08:40;12.10;99.90
23540;DHT22;11947;50.810;4.394;2023-11-19T08:11:06;12.00;99.90
23540;DHT22;11947;50.810;4.394;2023-11-19T08:13:31;12.00;99.90
23540;DHT22;11947;50.810;4.394;2023-11-19T08:15:57;12.00;99.90
23540;DHT22;11947;50.810;4.394;2023-11-19T08:18:24;12.00;99.90
23540;DHT22;11947;50.810;4.394;2023-11-19T08:20:49;12.00;99.90
23540;DHT22;11947;50.810;4.394;2023-11-19T08:23:18;12.00;99.90
23540;DHT22;11947;50.810;4.394;2023-11-19T08:25:44;12.00;99.90
23540;DHT22;11947;50.810;4.394;2023-11-19T08:28:11;12.00;99.90
23540;DHT22;11947;50.810;4.394;2023-11-19T08:30:36;12.00;99.90
23540;DHT22;11947;50.810;4.394;2023-11-19T08:33:02;12.20;99.90
23540;DHT22;11947;50.810;4.394;2023-11-19T08:35:31;12.40;99.90
23540;DHT22;11947;50.810;4.394;2023-11-19T08:37:57;12.60;99.90
23540;DHT22;11947;50.810;4.394;2023-11-19T08:40:24;12.50;99.90
23540;DHT22;11947;50.810;4.394;2023-11-19T08:42:51;12.50;99.90
23540;DHT22;11947;50.810;4.394;2023-11-19T08:45:17;12.60;99.90
23540;DHT22;11947;50.810;4.394;2023-11-19T08:47:42;12.60;99.90
23540;DHT22;11947;50.810;4.394;2023-11-19T08:50:08;12.60;99.90
23540;DHT22;11947;50.810;4.394;2023-11-19T08:52:34;12.50;99.90
23540;DHT22;11947;50.810;4.394;2023-11-19T08:55:00;12.50;99.90
23540;DHT22;11947;50.810;4.394;2023-11-19T08:57:25;12.60;99.90
23540;DHT22;11947;50.810;4.394;2023-11-19T08:59:51;12.60;99.90
23540;DHT22;11947;50.810;4.394;2023-11-19T09:02:17;12.70;99.90
23540;DHT22;11947;50.810;4.394;2023-11-19T09:04:43;12.80;99.90
23540;DHT22;11947;50.810;4.394;2023-11-19T09:07:09;12.50;99.90
23540;DHT22;11947;50.810;4.394;2023-11-19T09:09:35;12.60;99.90
23540;DHT22;11947;50.810;4.394;2023-11-19T09:12:02;12.70;99.90
23540;DHT22;11947;50.810;4.394;2023-11-19T09:14:29;12.80;99.90
23540;DHT22;11947;50.810;4.394;2023-11-19T09:16:56;12.90;99.90
23540;DHT22;11947;50.810;4.394;2023-11-19T09:19:22;13.00;99.90
23540;DHT22;11947;50.810;4.394;2023-11-19T09:21:48;13.10;99.90
23540;DHT22;11947;50.810;4.394;2023-11-19T09:24:22;13.00;99.90
23540;DHT22;11947;50.810;4.394;2023-11-19T09:27:37;13.00;99.90
23540;DHT22;11947;50.810;4.394;2023-11-19T09:30:05;13.00;99.90
23540;DHT22;11947;50.810;4.394;2023-11-19T09:32:30;12.90;99.90
23540;DHT22;11947;50.810;4.394;2023-11-19T09:34:56;13.10;99.90
23540;DHT22;11947;50.810;4.394;2023-11-19T09:37:23;13.20;99.90
23540;DHT22;11947;50.810;4.394;2023-11-19T09:39:48;13.10;99.90
23540;DHT22;11947;50.810;4.394;2023-11-19T09:42:16;13.20;99.90
23540;DHT22;11947;50.810;4.394;2023-11-19T09:44:43;13.10;99.90
23540;DHT22;11947;50.810;4.394;2023-11-19T09:47:11;13.10;99.90
23540;DHT22;11947;50.810;4.394;2023-11-19T09:49:37;13.20;99.90
23540;DHT22;11947;50.810;4.394;2023-11-19T09:52:04;13.10;99.90
23540;DHT22;11947;50.810;4.394;2023-11-19T09:54:30;13.20;99.90
23540;DHT22;11947;50.810;4.394;2023-11-19T09:56:58;13.20;99.90
23540;DHT22;11947;50.810;4.394;2023-11-19T09:59:29;13.10;99.90
23540;DHT22;11947;50.810;4.394;2023-11-19T10:01:56;13.10;99.90
23540;DHT22;11947;50.810;4.394;2023-11-19T10:04:22;13.20;99.90
23540;DHT22;11947;50.810;4.394;2023-11-19T10:06:49;13.10;99.90
23540;DHT22;11947;50.810;4.394;2023-11-19T10:09:15;13.20;99.90
23540;DHT22;11947;50.810;4.394;2023-11-19T10:11:40;13.10;99.90
23540;DHT22;11947;50.810;4.394;2023-11-19T10:14:06;13.40;99.90
23540;DHT22;11947;50.810;4.394;2023-11-19T10:16:35;13.50;99.90
23540;DHT22;11947;50.810;4.394;2023-11-19T10:19:01;13.80;99.90
23540;DHT22;11947;50.810;4.394;2023-11-19T10:21:27;14.00;99.90
23540;DHT22;11947;50.810;4.394;2023-11-19T10:23:57;14.00;99.90
23540;DHT22;11947;50.810;4.394;2023-11-19T10:26:25;14.10;99.90
23540;DHT22;11947;50.810;4.394;2023-11-19T10:28:52;14.10;99.90
23540;DHT22;11947;50.810;4.394;2023-11-19T10:31:19;14.00;99.90
23540;DHT22;11947;50.810;4.394;2023-11-19T10:33:48;14.10;99.90
23540;DHT22;11947;50.810;4.394;2023-11-19T10:36:14;14.40;99.90
23540;DHT22;11947;50.810;4.394;2023-11-19T10:38:40;14.60;99.90
23540;DHT22;11947;50.810;4.394;2023-11-19T10:41:06;14.70;99.90
23540;DHT22;11947;50.810;4.394;2023-11-19T10:43:43;14.60;99.90
23540;DHT22;11947;50.810;4.394;2023-11-19T10:46:14;14.70;99.90
23540;DHT22;11947;50.810;4.394;2023-11-19T10:48:46;14.70;99.90
23540;DHT22;11947;50.810;4.394;2023-11-19T10:51:13;14.50;99.90
23540;DHT22;11947;50.810;4.394;2023-11-19T10:53:47;14.30;99.90
23540;DHT22;11947;50.810;4.394;2023-11-19T10:56:16;14.40;99.90
23540;DHT22;11947;50.810;4.394;2023-11-19T10:58:45;14.50;99.90
23540;DHT22;11947;50.810;4.394;2023-11-19T11:01:19;14.30;99.90
23540;DHT22;11947;50.810;4.394;2023-11-19T11:03:51;14.30;99.90
23540;DHT22;11947;50.810;4.394;2023-11-19T11:06:18;14.30;99.90
23540;DHT22;11947;50.810;4.394;2023-11-19T11:08:46;14.30;99.90
23540;DHT22;11947;50.810;4.394;2023-11-19T11:11:16;14.20;99.90
23540;DHT22;11947;50.810;4.394;2023-11-19T11:13:47;14.20;99.90
23540;DHT22;11947;50.810;4.394;2023-11-19T11:16:15;14.20;99.90
23540;DHT22;11947;50.810;4.394;2023-11-19T11:18:45;14.10;99.90
23540;DHT22;11947;50.810;4.394;2023-11-19T11:21:14;14.00;99.90
23540;DHT22;11947;50.810;4.394;2023-11-19T11:24:06;14.10;99.90
23540;DHT22;11947;50.810;4.394;2023-11-19T11:29:52;13.90;99.90
23540;DHT22;11947;50.810;4.394;2023-11-19T11:32:34;14.00;99.90
23540;DHT22;11947;50.810;4.394;2023-11-19T11:35:19;14.10;99.90
23540;DHT22;11947;50.810;4.394;2023-11-19T11:37:59;14.30;99.90
23540;DHT22;11947;50.810;4.394;2023-11-19T11:40:25;14.60;99.90
23540;DHT22;11947;50.810;4.394;2023-11-19T11:42:52;14.80;99.90
23540;DHT22;11947;50.810;4.394;2023-11-19T11:45:18;14.70;99.90
23540;DHT22;11947;50.810;4.394;2023-11-19T11:50:20;14.60;99.90
23540;DHT22;11947;50.810;4.394;2023-11-19T11:58:20;14.50;99.90
23540;DHT22;11947;50.810;4.394;2023-11-19T12:00:48;14.40;99.90
23540;DHT22;11947;50.810;4.394;2023-11-19T12:03:14;14.60;99.90
23540;DHT22;11947;50.810;4.394;2023-11-19T12:05:45;14.50;99.90
23540;DHT22;11947;50.810;4.394;2023-11-19T12:08:12;14.70;99.90
23540;DHT22;11947;50.810;4.394;2023-11-19T12:13:10;14.80;99.90
23540;DHT22;11947;50.810;4.394;2023-11-19T12:18:28;15.00;99.90
23540;DHT22;11947;50.810;4.394;2023-11-19T12:20:55;14.80;99.90
23540;DHT22;11947;50.810;4.394;2023-11-19T12:23:22;14.60;99.90
23540;DHT22;11947;50.810;4.394;2023-11-19T12:25:48;14.40;99.90
23540;DHT22;11947;50.810;4.394;2023-11-19T12:28:15;14.10;99.90
23540;DHT22;11947;50.810;4.394;2023-11-19T12:30:43;14.10;99.90
23540;DHT22;11947;50.810;4.394;2023-11-19T12:33:12;14.00;99.90
23540;DHT22;11947;50.810;4.394;2023-11-19T12:35:39;13.70;99.90
23540;DHT22;11947;50.810;4.394;2023-11-19T12:38:06;13.60;99.90
23540;DHT22;11947;50.810;4.394;2023-11-19T12:40:32;13.60;99.90
23540;DHT22;11947;50.810;4.394;2023-11-19T12:42:59;13.60;99.90
23540;DHT22;11947;50.810;4.394;2023-11-19T12:45:46;13.70;99.90
23540;DHT22;11947;50.810;4.394;2023-11-19T12:48:16;13.90;99.90
23540;DHT22;11947;50.810;4.394;2023-11-19T12:50:58;13.90;99.90
23540;DHT22;11947;50.810;4.394;2023-11-19T12:53:52;14.00;99.90
23540;DHT22;11947;50.810;4.394;2023-11-19T12:56:22;14.20;99.90
23540;DHT22;11947;50.810;4.394;2023-11-19T12:58:48;14.00;99.90
23540;DHT22;11947;50.810;4.394;2023-11-19T13:01:20;14.00;99.90
23540;DHT22;11947;50.810;4.394;2023-11-19T13:03:46;14.20;99.90
23540;DHT22;11947;50.810;4.394;2023-11-19T13:06:13;14.20;99.90
23540;DHT22;11947;50.810;4.394;2023-11-19T13:11:14;14.10;99.90
23540;DHT22;11947;50.810;4.394;2023-11-19T13:14:00;14.00;99.90
23540;DHT22;11947;50.810;4.394;2023-11-19T13:16:26;13.80;99.90
23540;DHT22;11947;50.810;4.394;2023-11-19T13:18:53;13.90;99.90
23540;DHT22;11947;50.810;4.394;2023-11-19T13:21:19;13.80;99.90
23540;DHT22;11947;50.810;4.394;2023-11-19T13:23:44;13.80;99.90
23540;DHT22;11947;50.810;4.394;2023-11-19T13:26:11;13.80;99.90
23540;DHT22;11947;50.810;4.394;2023-11-19T13:28:37;13.80;99.90
23540;DHT22;11947;50.810;4.394;2023-11-19T13:31:03;13.80;99.90
23540;DHT22;11947;50.810;4.394;2023-11-19T13:33:29;13.70;99.90
23540;DHT22;11947;50.810;4.394;2023-11-19T13:35:55;13.70;99.90
23540;DHT22;11947;50.810;4.394;2023-11-19T13:38:20;13.80;99.90
23540;DHT22;11947;50.810;4.394;2023-11-19T13:40:46;13.70;99.90
23540;DHT22;11947;50.810;4.394;2023-11-19T13:43:12;13.70;99.90
23540;DHT22;11947;50.810;4.394;2023-11-19T13:45:37;13.80;99.90
23540;DHT22;11947;50.810;4.394;2023-11-19T13:48:03;13.90;99.90
23540;DHT22;11947;50.810;4.394;2023-11-19T13:50:29;13.90;99.90
23540;DHT22;11947;50.810;4.394;2023-11-19T13:52:54;14.00;99.90
23540;DHT22;11947;50.810;4.394;2023-11-19T13:55:21;13.90;99.90
23540;DHT22;11947;50.810;4.394;2023-11-19T13:57:47;13.80;99.90
23540;DHT22;11947;50.810;4.394;2023-11-19T14:00:14;14.00;99.90
23540;DHT22;11947;50.810;4.394;2023-11-19T14:02:47;13.90;99.90
23540;DHT22;11947;50.810;4.394;2023-11-19T14:05:14;13.90;99.90
23540;DHT22;11947;50.810;4.394;2023-11-19T14:07:41;13.90;99.90
23540;DHT22;11947;50.810;4.394;2023-11-19T14:10:07;13.70;99.90
23540;DHT22;11947;50.810;4.394;2023-11-19T14:12:37;13.70;99.90
23540;DHT22;11947;50.810;4.394;2023-11-19T14:15:07;13.90;99.90
23540;DHT22;11947;50.810;4.394;2023-11-19T14:17:37;13.90;99.90
23540;DHT22;11947;50.810;4.394;2023-11-19T14:20:03;13.80;99.90
23540;DHT22;11947;50.810;4.394;2023-11-19T14:22:41;13.90;99.90
23540;DHT22;11947;50.810;4.394;2023-11-19T14:25:07;13.80;99.90
23540;DHT22;11947;50.810;4.394;2023-11-19T14:27:39;13.60;99.90
23540;DHT22;11947;50.810;4.394;2023-11-19T14:30:09;13.60;99.90
23540;DHT22;11947;50.810;4.394;2023-11-19T14:32:42;13.40;99.90
23540;DHT22;11947;50.810;4.394;2023-11-19T14:35:10;13.20;99.90
23540;DHT22;11947;50.810;4.394;2023-11-19T14:37:35;13.00;99.90
23540;DHT22;11947;50.810;4.394;2023-11-19T14:40:01;13.00;99.90
23540;DHT22;11947;50.810;4.394;2023-11-19T14:42:30;13.10;99.90
23540;DHT22;11947;50.810;4.394;2023-11-19T14:44:55;13.00;99.90
23540;DHT22;11947;50.810;4.394;2023-11-19T14:47:21;13.10;99.90
23540;DHT22;11947;50.810;4.394;2023-11-19T14:49:47;13.10;99.90
23540;DHT22;11947;50.810;4.394;2023-11-19T14:52:13;13.10;99.90
23540;DHT22;11947;50.810;4.394;2023-11-19T14:54:39;13.00;99.90
23540;DHT22;11947;50.810;4.394;2023-11-19T14:57:05;13.00;99.90
23540;DHT22;11947;50.810;4.394;2023-11-19T14:59:33;13.00;99.90
23540;DHT22;11947;50.810;4.394;2023-11-19T15:01:59;12.90;99.90
23540;DHT22;11947;50.810;4.394;2023-11-19T15:04:26;12.90;99.90
23540;DHT22;11947;50.810;4.394;2023-11-19T15:06:52;12.90;99.90
23540;DHT22;11947;50.810;4.394;2023-11-19T15:09:17;12.80;99.90
23540;DHT22;11947;50.810;4.394;2023-11-19T15:11:46;12.80;99.90
23540;DHT22;11947;50.810;4.394;2023-11-19T15:14:13;12.80;99.90
23540;DHT22;11947;50.810;4.394;2023-11-19T15:16:44;12.90;99.90
23540;DHT22;11947;50.810;4.394;2023-11-19T15:19:11;12.80;99.90
23540;DHT22;11947;50.810;4.394;2023-11-19T15:21:41;12.60;99.90
23540;DHT22;11947;50.810;4.394;2023-11-19T15:24:07;12.60;99.90
23540;DHT22;11947;50.810;4.394;2023-11-19T15:26:34;12.60;99.90
23540;DHT22;11947;50.810;4.394;2023-11-19T15:29:00;12.70;99.90
23540;DHT22;11947;50.810;4.394;2023-11-19T15:31:26;12.70;99.90
23540;DHT22;11947;50.810;4.394;2023-11-19T15:33:52;12.80;99.90
23540;DHT22;11947;50.810;4.394;2023-11-19T15:36:17;13.00;99.90
23540;DHT22;11947;50.810;4.394;2023-11-19T15:38:44;12.90;99.90
23540;DHT22;11947;50.810;4.394;2023-11-19T15:41:09;12.80;99.90
23540;DHT22;11947;50.810;4.394;2023-11-19T15:43:36;12.70;99.90
23540;DHT22;11947;50.810;4.394;2023-11-19T15:46:06;12.80;99.90
23540;DHT22;11947;50.810;4.394;2023-11-19T15:48:31;12.90;99.90